Time;durP1;ratioP1;P1;durP2;ratioP2;P2;SDS_P1;SDS_P2;PMS_P1;PMS_P2;Temp;Humidity;BMP_temperature;BMP_pressure;BME280_temperature;BME280_humidity;BME280_pressure;Samples;Min_cycle;Max_cycle;Signal;HPM_P1;HPM_P2
2022/05/18 00:00:56;;;;;;;4.57;3.07;;;19.80;79.70;;;;;;6201807;28;20682;-65
2022/05/18 00:03:59;;;;;;;3.37;3.07;;;19.80;80.10;;;;;;6201327;28;20231;-63
2022/05/18 00:07:03;;;;;;;3.27;3.00;;;19.70;80.30;;;;;;6202366;28;20242;-65
2022/05/18 00:10:08;;;;;;;3.20;3.00;;;19.60;80.70;;;;;;6199830;28;20226;-64
2022/05/18 00:13:12;;;;;;;3.60;3.30;;;19.50;81.90;;;;;;6200285;28;20230;-65
2022/05/18 00:16:17;;;;;;;3.93;3.63;;;19.50;81.10;;;;;;6199579;28;20221;-65
2022/05/18 00:19:20;;;;;;;3.30;3.10;;;19.40;81.70;;;;;;6200065;28;20854;-66
2022/05/18 00:22:23;;;;;;;4.17;3.87;;;19.40;81.10;;;;;;6201066;28;20240;-66
2022/05/18 00:25:30;;;;;;;3.50;3.20;;;19.30;81.80;;;;;;6202051;28;20230;-65
2022/05/18 00:28:33;;;;;;;4.80;3.20;;;19.30;81.70;;;;;;6202128;28;20237;-63
2022/05/18 00:31:36;;;;;;;3.60;3.30;;;19.30;81.00;;;;;;6201996;28;20230;-64
2022/05/18 00:34:40;;;;;;;4.17;3.77;;;19.30;81.70;;;;;;6201964;28;20257;-65
2022/05/18 00:37:43;;;;;;;4.93;3.87;;;19.30;80.90;;;;;;6201892;28;20253;-64
2022/05/18 00:40:49;;;;;;;4.77;3.30;;;19.30;81.10;;;;;;6202049;28;20285;-64
2022/05/18 00:43:53;;;;;;;4.13;3.83;;;19.30;81.20;;;;;;6202175;28;20232;-64
2022/05/18 00:46:56;;;;;;;4.07;3.77;;;19.40;81.20;;;;;;6202063;28;20257;-63
2022/05/18 00:50:24;;;;;;;3.47;3.27;;;19.40;81.00;;;;;;6201944;28;20245;-63
2022/05/18 00:53:32;;;;;;;3.53;3.23;;;19.40;80.80;;;;;;6201788;28;20694;-64
2022/05/18 00:56:41;;;;;;;3.83;3.43;;;19.30;80.50;;;;;;6201726;28;20245;-64
2022/05/18 00:59:50;;;;;;;4.77;3.23;;;19.10;81.30;;;;;;6200927;28;20234;-65
2022/05/18 01:02:58;;;;;;;3.90;3.43;;;19.00;81.50;;;;;;6201695;28;20198;-66
2022/05/18 01:06:09;;;;;;;3.60;2.77;;;19.00;81.70;;;;;;6192372;28;20283;-65
2022/05/18 01:09:17;;;;;;;5.43;3.67;;;18.90;82.00;;;;;;6201811;28;20315;-66
2022/05/18 01:12:22;;;;;;;3.63;3.33;;;19.00;82.30;;;;;;6201673;28;20686;-64
2022/05/18 01:15:25;;;;;;;3.83;3.53;;;18.90;82.50;;;;;;6201701;28;20564;-65
2022/05/18 01:18:29;;;;;;;3.73;3.20;;;18.90;83.10;;;;;;6201286;28;20244;-66
2022/05/18 01:21:42;;;;;;;3.63;3.33;;;18.80;83.50;;;;;;6201829;28;20233;-65
2022/05/18 01:24:56;;;;;;;4.07;3.73;;;18.80;83.90;;;;;;6201629;28;20234;-65
2022/05/18 01:28:02;;;;;;;4.30;3.90;;;18.80;84.10;;;;;;6201293;28;20474;-65
2022/05/18 01:31:06;;;;;;;5.10;3.40;;;18.90;84.10;;;;;;6200860;28;20248;-65
2022/05/18 01:34:09;;;;;;;5.13;3.90;;;18.90;84.00;;;;;;6201277;28;20299;-65
2022/05/18 01:37:14;;;;;;;4.70;3.83;;;18.90;84.10;;;;;;6200926;28;20245;-66
2022/05/18 01:40:23;;;;;;;3.90;3.60;;;18.90;85.00;;;;;;6200619;28;20239;-65
2022/05/18 01:43:31;;;;;;;4.67;4.30;;;19.00;85.10;;;;;;6199573;28;20249;-66
2022/05/18 01:46:34;;;;;;;4.33;4.03;;;19.00;85.10;;;;;;6199376;28;20249;-65
2022/05/18 01:49:40;;;;;;;4.37;3.97;;;19.00;85.40;;;;;;6199495;28;20678;-67
2022/05/18 01:52:43;;;;;;;3.93;3.47;;;19.00;85.90;;;;;;6199415;28;20248;-66
2022/05/18 01:55:47;;;;;;;4.27;3.97;;;19.00;86.80;;;;;;6200239;28;20245;-65
2022/05/18 01:58:52;;;;;;;5.80;3.80;;;19.00;87.00;;;;;;6200666;28;20713;-65
2022/05/18 02:01:55;;;;;;;4.03;3.70;;;19.10;87.10;;;;;;6199738;28;20252;-65
2022/05/18 02:04:58;;;;;;;3.93;3.63;;;19.10;87.20;;;;;;6199068;28;20257;-65
2022/05/18 02:08:01;;;;;;;4.30;4.00;;;19.00;86.90;;;;;;6198907;28;20557;-65
2022/05/18 02:11:04;;;;;;;4.70;4.30;;;19.00;88.10;;;;;;6194904;28;20240;-65
2022/05/18 02:14:09;;;;;;;4.13;3.53;;;19.00;87.60;;;;;;6199074;28;20244;-65
2022/05/18 02:17:13;;;;;;;5.20;4.20;;;19.00;87.50;;;;;;6199200;28;20587;-64
2022/05/18 02:20:16;;;;;;;3.60;3.30;;;19.10;87.70;;;;;;6198797;28;20226;-65
2022/05/18 02:23:19;;;;;;;5.10;3.70;;;19.10;87.90;;;;;;6198904;28;20234;-65
2022/05/18 02:26:22;;;;;;;3.93;3.63;;;19.10;87.70;;;;;;6198876;28;20242;-65
2022/05/18 02:29:27;;;;;;;3.77;3.47;;;19.00;88.50;;;;;;6198883;28;20226;-65
2022/05/18 02:32:30;;;;;;;4.77;4.03;;;19.00;87.70;;;;;;6199770;28;20895;-65
2022/05/18 02:35:33;;;;;;;4.90;4.50;;;18.90;88.20;;;;;;6199844;28;20774;-65
2022/05/18 02:38:36;;;;;;;5.50;3.80;;;18.80;87.70;;;;;;6200676;28;20238;-64
2022/05/18 02:41:39;;;;;;;5.10;4.13;;;18.60;87.90;;;;;;6203348;28;20233;-64
2022/05/18 02:44:44;;;;;;;9.40;4.20;;;18.50;88.20;;;;;;6204369;28;20457;-64
2022/05/18 02:47:47;;;;;;;5.00;4.60;;;18.40;87.80;;;;;;6204418;28;20244;-65
2022/05/18 02:50:50;;;;;;;4.83;4.30;;;18.40;87.80;;;;;;6205071;28;20216;-64
2022/05/18 02:53:53;;;;;;;5.47;4.30;;;18.30;87.90;;;;;;6204799;28;20450;-64
2022/05/18 02:56:55;;;;;;;5.23;4.10;;;18.40;88.00;;;;;;6204956;28;20461;-64
2022/05/18 03:00:00;;;;;;;8.33;4.33;;;18.40;87.70;;;;;;6204308;28;20252;-64
2022/05/18 03:03:03;;;;;;;4.53;3.90;;;18.30;87.30;;;;;;6204207;28;20750;-64
2022/05/18 03:06:08;;;;;;;4.93;4.37;;;18.30;87.60;;;;;;6204724;28;20468;-64
2022/05/18 03:09:12;;;;;;;6.13;4.13;;;18.30;87.90;;;;;;6204362;28;20476;-64
2022/05/18 03:12:15;;;;;;;4.23;3.93;;;18.30;87.60;;;;;;6204439;28;20658;-65
2022/05/18 03:15:20;;;;;;;6.37;4.50;;;18.30;87.40;;;;;;6203932;28;20473;-65
2022/05/18 03:18:24;;;;;;;5.60;4.23;;;18.20;87.90;;;;;;6202580;28;20568;-65
2022/05/18 03:24:59;;;;;;;4.40;3.90;;;18.10;88.20;;;;;;6129772;29;20526;-66
2022/05/18 03:28:02;;;;;;;4.87;4.47;;;18.20;88.60;;;;;;6203760;28;20239;-66
2022/05/18 03:31:07;;;;;;;4.60;3.77;;;18.20;88.50;;;;;;6203874;28;20480;-66
2022/05/18 03:34:10;;;;;;;4.40;4.00;;;18.30;88.60;;;;;;6204021;28;20257;-66
2022/05/18 03:37:13;;;;;;;4.77;4.37;;;18.30;88.60;;;;;;6206097;28;20237;-65
2022/05/18 03:40:17;;;;;;;4.70;4.30;;;18.30;88.10;;;;;;6206766;28;20491;-63
2022/05/18 03:43:21;;;;;;;4.77;4.37;;;18.40;88.30;;;;;;6206346;28;20229;-63
2022/05/18 03:46:25;;;;;;;4.60;4.20;;;18.40;88.30;;;;;;6204310;28;20481;-63
2022/05/18 03:49:28;;;;;;;4.47;4.07;;;18.40;87.90;;;;;;6204440;28;20977;-63
2022/05/18 03:52:31;;;;;;;5.17;4.67;;;18.40;87.90;;;;;;6202599;28;20230;-63
2022/05/18 03:55:35;;;;;;;6.87;4.43;;;18.40;88.90;;;;;;6202827;28;20977;-63
2022/05/18 03:58:38;;;;;;;5.43;3.80;;;18.40;89.70;;;;;;6202347;28;20476;-64
2022/05/18 04:01:43;;;;;;;5.73;4.03;;;18.40;89.70;;;;;;6202398;28;20702;-65
2022/05/18 04:04:46;;;;;;;4.33;4.00;;;18.40;89.10;;;;;;6202149;28;20239;-65
2022/05/18 04:07:50;;;;;;;4.47;4.13;;;18.50;88.90;;;;;;6201413;28;20484;-64
2022/05/18 04:10:55;;;;;;;4.93;4.00;;;18.60;89.30;;;;;;6201980;28;20469;-64
2022/05/18 04:13:58;;;;;;;4.63;4.13;;;18.70;88.90;;;;;;6203062;28;20240;-63
2022/05/18 04:17:03;;;;;;;4.17;3.80;;;18.50;86.60;;;;;;6201226;28;20581;-64
2022/05/18 04:20:07;;;;;;;4.10;3.80;;;18.50;86.20;;;;;;6201092;28;20247;-63
2022/05/18 04:23:11;;;;;;;5.10;3.60;;;18.60;86.00;;;;;;6201056;28;20248;-63
2022/05/18 04:26:14;;;;;;;3.77;3.47;;;18.60;84.40;;;;;;6201891;28;20583;-63
2022/05/18 04:29:17;;;;;;;3.50;3.23;;;18.70;84.60;;;;;;6202152;28;20465;-63
2022/05/18 04:32:22;;;;;;;5.17;3.70;;;18.80;83.60;;;;;;6200698;28;20241;-63
2022/05/18 04:35:26;;;;;;;3.67;3.37;;;19.00;82.70;;;;;;6200772;28;20682;-63
2022/05/18 04:38:32;;;;;;;4.43;4.03;;;19.10;82.30;;;;;;6200448;28;20229;-63
2022/05/18 04:41:35;;;;;;;5.70;3.40;;;19.20;81.70;;;;;;6200561;28;20238;-63
2022/05/18 04:44:39;;;;;;;4.00;3.60;;;19.30;80.80;;;;;;6200376;28;20249;-63
2022/05/18 04:47:43;;;;;;;4.63;4.23;;;19.40;80.20;;;;;;6201498;28;20230;-65
2022/05/18 04:50:48;;;;;;;3.90;3.60;;;19.60;80.00;;;;;;6202160;28;20360;-65
2022/05/18 04:53:51;;;;;;;3.97;3.67;;;19.80;79.20;;;;;;6201668;28;20641;-65
2022/05/18 04:56:55;;;;;;;3.77;3.47;;;20.00;79.00;;;;;;6201962;28;20229;-65
2022/05/18 04:59:58;;;;;;;3.20;3.00;;;20.30;77.70;;;;;;6201057;28;20230;-65
2022/05/18 05:03:02;;;;;;;3.83;3.50;;;20.50;77.10;;;;;;6200261;28;20241;-65
2022/05/18 05:06:06;;;;;;;4.40;4.00;;;20.60;75.30;;;;;;6201335;28;20315;-65
2022/05/18 05:09:10;;;;;;;4.03;3.50;;;20.70;76.60;;;;;;6201556;28;20654;-65
2022/05/18 05:12:13;;;;;;;3.90;3.40;;;20.70;76.10;;;;;;6201806;28;20225;-65
2022/05/18 05:15:17;;;;;;;4.80;3.30;;;20.80;74.80;;;;;;6201872;28;20237;-65
2022/05/18 05:18:22;;;;;;;4.13;3.53;;;20.80;74.70;;;;;;6200976;28;20256;-65
2022/05/18 05:21:26;;;;;;;5.40;3.70;;;20.90;74.40;;;;;;6195431;28;20545;-65
2022/05/18 05:24:29;;;;;;;7.50;3.70;;;20.80;73.80;;;;;;6201349;28;20229;-65
2022/05/18 05:27:32;;;;;;;4.37;3.97;;;20.90;74.10;;;;;;6201612;28;20244;-65
2022/05/18 05:30:35;;;;;;;4.03;3.73;;;20.90;73.60;;;;;;6201034;28;20241;-65
2022/05/18 05:33:42;;;;;;;3.47;3.17;;;21.00;74.50;;;;;;6201192;28;20234;-64
2022/05/18 05:36:45;;;;;;;7.73;3.27;;;20.70;72.80;;;;;;6201002;28;20240;-65
2022/05/18 05:39:48;;;;;;;3.57;3.20;;;20.50;73.40;;;;;;6200973;28;20225;-65
2022/05/18 05:42:52;;;;;;;3.30;3.00;;;20.40;73.50;;;;;;6201010;28;20253;-65
2022/05/18 05:45:57;;;;;;;4.37;3.30;;;20.40;73.30;;;;;;6200908;28;20665;-64
2022/05/18 05:49:02;;;;;;;5.30;3.77;;;20.50;72.60;;;;;;6201261;28;20233;-65
2022/05/18 05:52:06;;;;;;;4.43;3.47;;;20.70;71.50;;;;;;6201145;28;20229;-65
2022/05/18 05:55:10;;;;;;;4.83;4.17;;;21.20;70.50;;;;;;6200985;28;20674;-62
2022/05/18 05:58:15;;;;;;;3.40;3.10;;;21.90;66.70;;;;;;6200672;28;20252;-65
2022/05/18 06:01:19;;;;;;;7.37;3.53;;;22.40;64.90;;;;;;6200705;28;20234;-66
2022/05/18 06:04:24;;;;;;;3.60;3.30;;;23.20;63.00;;;;;;6200904;28;20241;-66
2022/05/18 06:07:27;;;;;;;7.20;3.57;;;23.60;60.20;;;;;;6200632;28;20544;-66
2022/05/18 06:10:30;;;;;;;4.10;3.70;;;24.10;59.20;;;;;;6200585;28;20218;-67
2022/05/18 06:13:33;;;;;;;2.90;2.70;;;24.30;57.40;;;;;;6200938;28;20237;-64
2022/05/18 06:16:37;;;;;;;3.23;2.93;;;24.20;57.90;;;;;;6204277;28;20229;-66
2022/05/18 06:19:41;;;;;;;5.10;3.47;;;25.00;56.00;;;;;;6205628;28;20249;-67
2022/05/18 06:22:44;;;;;;;3.93;3.50;;;25.70;54.30;;;;;;6206012;28;20229;-64
2022/05/18 06:25:47;;;;;;;5.70;3.17;;;26.50;52.20;;;;;;6200642;28;20244;-66
2022/05/18 06:28:51;;;;;;;4.30;3.13;;;27.00;50.30;;;;;;6205097;28;20247;-66
2022/05/18 06:31:54;;;;;;;4.77;3.90;;;27.20;48.40;;;;;;6205390;28;20239;-66
2022/05/18 06:34:59;;;;;;;3.27;2.97;;;27.60;47.60;;;;;;6205303;28;20236;-64
2022/05/18 06:38:10;;;;;;;4.43;3.53;;;27.60;46.60;;;;;;6205025;28;20233;-64
2022/05/18 06:41:25;;;;;;;3.37;3.07;;;27.00;47.80;;;;;;6204756;28;20236;-66
2022/05/18 06:44:28;;;;;;;3.20;2.90;;;27.60;47.60;;;;;;6204617;28;20271;-62
2022/05/18 06:47:32;;;;;;;3.90;3.60;;;28.70;46.60;;;;;;6204540;28;20225;-62
2022/05/18 06:50:37;;;;;;;3.23;2.93;;;29.70;44.40;;;;;;6204475;28;20232;-65
2022/05/18 06:53:41;;;;;;;3.23;2.93;;;30.30;41.60;;;;;;6205214;28;20553;-63
2022/05/18 06:56:45;;;;;;;5.30;3.17;;;30.80;40.80;;;;;;6203619;28;20225;-63
2022/05/18 06:59:48;;;;;;;3.67;3.00;;;31.80;39.40;;;;;;6204574;28;20219;-63
2022/05/18 07:02:51;;;;;;;3.65;3.25;;;31.90;37.20;;;;;;6204697;28;20205;-63
2022/05/18 07:05:56;;;;;;;3.65;3.13;;;32.10;37.10;;;;;;6204309;28;20294;-65
2022/05/18 07:08:59;;;;;;;5.35;3.35;;;32.00;36.30;;;;;;6204752;28;20308;-62
2022/05/18 07:12:04;;;;;;;3.55;3.10;;;31.50;37.00;;;;;;6204359;28;20221;-65
2022/05/18 07:15:08;;;;;;;3.95;3.50;;;31.60;36.30;;;;;;6204509;28;20686;-64
2022/05/18 07:18:12;;;;;;;4.32;2.83;;;31.30;36.50;;;;;;6203766;28;20700;-63
2022/05/18 07:21:17;;;;;;;4.10;3.25;;;32.70;35.70;;;;;;6204097;28;20251;-63
2022/05/18 07:24:21;;;;;;;4.72;2.75;;;33.50;33.50;;;;;;6205372;28;20225;-63
2022/05/18 07:27:24;;;;;;;3.10;2.80;;;34.30;32.30;;;;;;6203951;28;20239;-67
2022/05/18 07:30:27;;;;;;;4.88;2.78;;;33.90;31.30;;;;;;6194465;28;20236;-64
2022/05/18 07:33:31;;;;;;;3.25;2.88;;;34.90;31.80;;;;;;6204222;28;20289;-64
2022/05/18 07:36:36;;;;;;;5.82;3.50;;;35.90;30.20;;;;;;6203411;28;20547;-66
2022/05/18 07:39:39;;;;;;;4.30;3.90;;;36.90;29.30;;;;;;6204098;28;20233;-66
2022/05/18 07:42:42;;;;;;;3.40;3.10;;;37.40;28.60;;;;;;6203471;28;20720;-67
2022/05/18 07:45:46;;;;;;;3.45;2.65;;;37.20;27.60;;;;;;6201718;28;20862;-68
2022/05/18 07:48:54;;;;;;;3.13;2.90;;;37.60;27.00;;;;;;6199664;28;20255;-67
2022/05/18 07:51:59;;;;;;;3.25;2.80;;;38.40;26.60;;;;;;6202004;28;20222;-67
2022/05/18 07:55:02;;;;;;;6.38;3.33;;;39.50;25.10;;;;;;6201403;28;20225;-67
2022/05/18 07:58:07;;;;;;;2.63;2.42;;;39.90;24.70;;;;;;6201447;28;20225;-68
2022/05/18 08:01:10;;;;;;;3.42;3.13;;;38.30;24.80;;;;;;6198477;28;20561;-65
2022/05/18 08:04:14;;;;;;;4.43;2.65;;;38.30;25.50;;;;;;6201248;28;20662;-63
2022/05/18 08:07:19;;;;;;;2.50;2.30;;;39.10;24.80;;;;;;6201144;28;20242;-64
2022/05/18 08:17:03;;;;;;;2.55;2.22;;;35.90;26.00;;;;;;6200310;28;20230;-63
2022/05/18 08:20:09;;;;;;;3.67;3.10;;;34.60;26.90;;;;;;6200878;28;20232;-63
2022/05/18 08:23:14;;;;;;;2.83;2.63;;;34.10;27.70;;;;;;6198423;28;20235;-63
2022/05/18 08:26:17;;;;;;;5.25;2.83;;;33.70;28.40;;;;;;6200620;28;20241;-63
2022/05/18 08:29:22;;;;;;;4.78;2.75;;;32.90;28.50;;;;;;6200453;28;20671;-64
2022/05/18 08:32:25;;;;;;;3.90;3.13;;;32.10;28.80;;;;;;6200686;28;20360;-64
2022/05/18 08:35:30;;;;;;;6.00;3.00;;;31.40;29.30;;;;;;6201704;28;20239;-63
2022/05/18 08:38:35;;;;;;;3.70;3.40;;;30.90;30.50;;;;;;6201829;28;20245;-63
2022/05/18 08:41:44;;;;;;;3.47;2.22;;;30.50;31.50;;;;;;6202114;28;20311;-62
2022/05/18 08:44:48;;;;;;;7.90;3.22;;;30.10;31.50;;;;;;6202253;28;20211;-64
2022/05/18 08:48:02;;;;;;;4.20;2.80;;;29.70;32.00;;;;;;6201985;28;20227;-62
2022/05/18 08:51:19;;;;;;;2.80;2.60;;;29.10;32.90;;;;;;6201864;28;20251;-61
2022/05/18 08:54:53;;;;;;;4.03;2.87;;;28.50;33.30;;;;;;6201592;28;20688;-61
2022/05/18 08:58:00;;;;;;;4.70;2.83;;;28.30;34.40;;;;;;6177276;28;20261;-63
2022/05/18 09:01:10;;;;;;;5.93;2.70;;;27.80;34.20;;;;;;6177155;28;20551;-61
2022/05/18 09:04:17;;;;;;;6.93;3.00;;;27.10;35.20;;;;;;6199389;28;20249;-62
2022/05/18 09:07:25;;;;;;;3.30;3.00;;;26.90;35.70;;;;;;6200886;28;20229;-61
2022/05/18 09:10:34;;;;;;;3.13;2.80;;;27.10;35.70;;;;;;6200349;28;20233;-62
2022/05/18 09:13:38;;;;;;;6.40;2.90;;;26.90;35.60;;;;;;6200686;28;20772;-64
2022/05/18 09:16:45;;;;;;;3.40;2.83;;;26.60;36.60;;;;;;6200297;28;20295;-62
2022/05/18 09:19:57;;;;;;;4.30;3.57;;;26.40;36.90;;;;;;6200622;28;20670;-62
2022/05/18 09:23:19;;;;;;;5.13;3.87;;;26.50;36.60;;;;;;6199853;28;20690;-62
2022/05/18 09:26:49;;;;;;;3.30;2.90;;;26.40;36.80;;;;;;6199794;28;20316;-62
2022/05/18 09:30:01;;;;;;;2.93;2.60;;;26.10;36.80;;;;;;6176106;28;20236;-61
2022/05/18 09:33:23;;;;;;;3.97;3.57;;;26.40;37.90;;;;;;6176266;28;20740;-62
2022/05/18 09:36:59;;;;;;;3.87;2.47;;;26.50;37.20;;;;;;6175923;28;20234;-62
2022/05/18 09:40:09;;;;;;;4.63;2.80;;;26.80;37.60;;;;;;6178713;28;20236;-61
2022/05/18 09:43:21;;;;;;;3.30;2.83;;;27.10;36.20;;;;;;6200407;28;20229;-64
2022/05/18 09:46:30;;;;;;;3.80;2.70;;;27.20;35.70;;;;;;6199996;28;20330;-62
2022/05/18 09:49:40;;;;;;;4.50;2.57;;;26.90;36.60;;;;;;6200649;28;20225;-63
2022/05/18 09:52:45;;;;;;;2.80;2.60;;;26.70;37.30;;;;;;6205449;28;20229;-62
2022/05/18 09:55:50;;;;;;;4.67;3.13;;;27.10;36.80;;;;;;6205672;28;20221;-62
2022/05/18 09:58:58;;;;;;;3.47;3.17;;;27.30;35.50;;;;;;6204467;28;20271;-62
2022/05/18 10:08:49;;;;;;;3.37;3.07;;;27.20;36.10;;;;;;6204296;28;20222;-62
2022/05/18 10:11:53;;;;;;;3.27;2.90;;;27.30;36.20;;;;;;6205013;28;20205;-62
2022/05/18 10:15:02;;;;;;;3.83;2.60;;;27.30;34.50;;;;;;6205442;28;20205;-66
2022/05/18 10:18:20;;;;;;;5.10;3.13;;;27.20;35.80;;;;;;6204994;28;20229;-65
2022/05/18 10:21:31;;;;;;;3.30;3.00;;;27.20;35.30;;;;;;6205683;28;20231;-65
2022/05/18 10:24:40;;;;;;;3.60;2.80;;;26.90;35.10;;;;;;6204992;28;20600;-66
2022/05/18 10:27:46;;;;;;;5.60;2.70;;;27.00;35.10;;;;;;6204814;28;20225;-65
2022/05/18 10:30:56;;;;;;;3.23;2.70;;;27.20;35.00;;;;;;6205392;28;20344;-66
2022/05/18 10:34:24;;;;;;;3.90;2.50;;;27.30;34.10;;;;;;6205107;28;20693;-66
2022/05/18 10:37:30;;;;;;;2.73;2.53;;;27.10;34.60;;;;;;6204824;28;20233;-66
2022/05/18 10:40:33;;;;;;;3.57;2.93;;;27.30;34.70;;;;;;6205189;28;20311;-66
2022/05/18 10:43:39;;;;;;;3.43;3.10;;;27.50;34.50;;;;;;6195696;28;20233;-66
2022/05/18 10:46:52;;;;;;;3.30;3.00;;;27.20;33.90;;;;;;6204462;28;20571;-66
2022/05/18 10:50:21;;;;;;;3.43;3.13;;;26.50;34.80;;;;;;6204527;28;20230;-66
2022/05/18 10:53:34;;;;;;;3.73;2.47;;;26.30;35.10;;;;;;6204405;28;20361;-66
2022/05/18 10:56:38;;;;;;;2.80;2.60;;;26.50;35.20;;;;;;6204337;28;20229;-66
2022/05/18 10:59:49;;;;;;;3.30;2.70;;;26.70;35.30;;;;;;6204173;28;20229;-65
2022/05/18 11:03:00;;;;;;;2.80;2.60;;;27.00;35.10;;;;;;6203259;28;20228;-65
2022/05/18 11:06:08;;;;;;;8.03;2.73;;;26.80;34.70;;;;;;6204560;28;20217;-64
2022/05/18 11:09:20;;;;;;;3.43;2.50;;;27.00;34.60;;;;;;6204554;28;20225;-65
2022/05/18 11:12:32;;;;;;;3.80;2.87;;;26.80;34.50;;;;;;6204428;28;20572;-65
2022/05/18 11:15:42;;;;;;;2.60;2.40;;;27.00;34.80;;;;;;6204409;28;20235;-66
2022/05/18 11:18:58;;;;;;;2.70;2.50;;;27.00;34.30;;;;;;6204107;28;20564;-66
2022/05/18 11:22:15;;;;;;;2.90;2.70;;;26.80;34.40;;;;;;6204062;28;20221;-65
2022/05/18 11:25:25;;;;;;;2.80;2.57;;;26.80;34.50;;;;;;6203705;28;20237;-65
2022/05/18 11:28:58;;;;;;;3.03;2.50;;;26.50;34.20;;;;;;6203064;28;20229;-65
2022/05/18 11:32:26;;;;;;;3.23;2.40;;;26.60;34.50;;;;;;6203557;28;20801;-65
2022/05/18 11:35:52;;;;;;;3.40;2.90;;;26.70;34.80;;;;;;6203783;28;20240;-65
2022/05/18 11:39:08;;;;;;;3.90;2.00;;;26.90;34.60;;;;;;6203977;28;20230;-65
2022/05/18 11:42:23;;;;;;;2.77;2.37;;;26.60;33.80;;;;;;6204326;28;20235;-65
2022/05/18 11:45:38;;;;;;;4.50;2.37;;;26.30;34.70;;;;;;6198997;28;20233;-65
2022/05/18 11:48:50;;;;;;;3.23;2.43;;;25.90;35.90;;;;;;6203342;28;20229;-65
2022/05/18 11:52:08;;;;;;;3.10;2.30;;;25.90;35.70;;;;;;6203161;28;20690;-65
2022/05/18 11:55:21;;;;;;;3.97;2.43;;;26.30;35.10;;;;;;6203415;28;20238;-65
2022/05/18 11:58:47;;;;;;;2.67;2.47;;;26.80;34.50;;;;;;6203010;28;20230;-65
2022/05/18 12:02:01;;;;;;;3.00;2.70;;;26.90;33.80;;;;;;6202562;28;20237;-65
2022/05/18 12:05:27;;;;;;;3.67;2.97;;;26.70;34.20;;;;;;6202656;28;20570;-65
2022/05/18 12:08:47;;;;;;;6.63;2.60;;;25.90;35.20;;;;;;6202436;28;20226;-65
2022/05/18 12:12:02;;;;;;;3.23;2.83;;;25.60;36.30;;;;;;6201447;28;20226;-65
2022/05/18 12:15:13;;;;;;;4.33;2.10;;;25.60;36.10;;;;;;6201863;28;20678;-64
2022/05/18 12:18:21;;;;;;;4.77;2.47;;;25.40;36.90;;;;;;6200987;28;20233;-64
2022/05/18 12:21:31;;;;;;;3.60;3.17;;;25.70;36.50;;;;;;6202447;28;20538;-66
2022/05/18 12:24:39;;;;;;;3.47;2.80;;;26.10;36.90;;;;;;6202351;28;20228;-66
2022/05/18 12:27:42;;;;;;;3.00;2.70;;;26.50;35.80;;;;;;6202266;28;20244;-67
2022/05/18 12:30:47;;;;;;;5.20;2.80;;;26.70;35.50;;;;;;6202289;28;20240;-64
2022/05/18 12:34:02;;;;;;;4.83;2.40;;;26.70;35.30;;;;;;6202321;28;20225;-63
2022/05/18 12:37:16;;;;;;;4.60;2.70;;;26.50;35.70;;;;;;6201704;28;20237;-64
2022/05/18 12:40:34;;;;;;;4.83;3.10;;;26.60;35.40;;;;;;6202070;28;20662;-64
2022/05/18 12:43:40;;;;;;;3.10;2.80;;;26.10;35.70;;;;;;6201835;28;20233;-65
2022/05/18 12:46:46;;;;;;;3.13;2.67;;;25.80;35.80;;;;;;6201945;28;20245;-64
2022/05/18 12:49:58;;;;;;;4.27;2.93;;;26.00;36.10;;;;;;6192893;28;20236;-64
2022/05/18 12:53:03;;;;;;;3.77;2.50;;;25.80;36.60;;;;;;6201756;28;20237;-63
2022/05/18 12:56:15;;;;;;;4.80;2.50;;;25.70;36.90;;;;;;6201756;28;20658;-65
2022/05/18 12:59:21;;;;;;;4.00;2.73;;;26.00;36.60;;;;;;6201330;28;20241;-65
2022/05/18 13:02:37;;;;;;;3.20;2.90;;;26.20;36.40;;;;;;6201227;28;20256;-63
2022/05/18 13:05:42;;;;;;;3.13;2.80;;;26.40;36.30;;;;;;6201628;28;20535;-65
2022/05/18 13:09:40;;;;;;;4.00;2.80;;;26.70;36.00;;;;;;6199209;28;20375;-63
2022/05/18 13:12:57;;;;;;;2.63;2.43;;;26.50;35.50;;;;;;6201491;28;20674;-67
2022/05/18 13:16:01;;;;;;;3.33;2.90;;;25.90;36.60;;;;;;6201681;28;20265;-66
2022/05/18 13:19:14;;;;;;;2.70;2.50;;;26.00;36.60;;;;;;6200801;28;20236;-66
2022/05/18 13:22:45;;;;;;;4.03;2.37;;;26.20;36.40;;;;;;6200985;28;20549;-65
2022/05/18 13:25:53;;;;;;;3.30;3.00;;;26.20;36.10;;;;;;6201855;28;20328;-66
2022/05/18 13:29:09;;;;;;;5.13;2.93;;;26.50;36.10;;;;;;6201725;28;20303;-65
2022/05/18 13:32:17;;;;;;;3.80;3.07;;;26.70;36.20;;;;;;6201996;28;20225;-65
2022/05/18 13:35:25;;;;;;;3.50;2.30;;;26.30;36.20;;;;;;6200719;28;20300;-65
2022/05/18 13:38:29;;;;;;;3.50;3.20;;;26.10;36.20;;;;;;6199963;28;20255;-64
2022/05/18 13:41:34;;;;;;;3.13;2.83;;;25.50;37.50;;;;;;6200641;28;20221;-63
2022/05/18 13:44:39;;;;;;;4.00;2.80;;;25.50;37.60;;;;;;6200988;28;20236;-63
2022/05/18 13:47:46;;;;;;;2.90;2.57;;;25.90;37.40;;;;;;6201097;28;20252;-63
2022/05/18 13:50:51;;;;;;;6.77;2.87;;;25.70;37.10;;;;;;6196559;28;20229;-63
2022/05/18 13:53:59;;;;;;;5.53;2.90;;;25.30;37.60;;;;;;6200711;28;20576;-64
2022/05/18 13:57:06;;;;;;;2.93;2.73;;;25.20;38.40;;;;;;6200831;28;20236;-63
2022/05/18 14:00:19;;;;;;;3.27;2.97;;;25.50;38.40;;;;;;6200769;28;20243;-64
2022/05/18 14:03:25;;;;;;;3.43;3.23;;;25.50;37.80;;;;;;6200974;28;20229;-63
2022/05/18 14:06:28;;;;;;;7.80;3.07;;;25.60;38.70;;;;;;6201002;28;20249;-63
2022/05/18 14:09:41;;;;;;;3.47;3.20;;;25.70;38.10;;;;;;6200499;28;20242;-63
2022/05/18 14:12:49;;;;;;;3.23;2.87;;;25.70;37.70;;;;;;6200148;28;20248;-63
2022/05/18 14:15:55;;;;;;;3.37;2.90;;;25.50;38.20;;;;;;6199878;28;20323;-63
2022/05/18 14:19:22;;;;;;;4.07;3.67;;;25.20;38.70;;;;;;6198657;28;20256;-62
2022/05/18 14:22:51;;;;;;;3.77;2.83;;;25.40;38.50;;;;;;6200060;28;20574;-62
2022/05/18 14:26:00;;;;;;;3.10;2.77;;;25.40;39.20;;;;;;6199393;28;20678;-62
2022/05/18 14:29:07;;;;;;;5.40;3.93;;;25.30;38.60;;;;;;6199031;28;20280;-61
2022/05/18 14:32:15;;;;;;;3.57;3.27;;;25.20;38.20;;;;;;6199689;28;20234;-62
2022/05/18 14:35:24;;;;;;;3.20;2.90;;;25.10;39.20;;;;;;6196980;28;20230;-62
2022/05/18 14:38:34;;;;;;;3.93;3.00;;;25.10;38.10;;;;;;6203424;28;20225;-63
2022/05/18 14:41:41;;;;;;;4.40;2.97;;;25.20;38.90;;;;;;6204283;28;20240;-61
2022/05/18 14:45:07;;;;;;;5.97;3.30;;;25.10;38.50;;;;;;6204497;28;20238;-61
2022/05/18 14:48:22;;;;;;;3.17;2.97;;;24.90;39.20;;;;;;6205261;28;20238;-62
2022/05/18 14:51:31;;;;;;;4.63;3.90;;;24.80;38.70;;;;;;6204571;28;20229;-62
2022/05/18 14:54:37;;;;;;;3.90;3.47;;;24.70;38.80;;;;;;6204904;28;20230;-64
2022/05/18 14:57:42;;;;;;;3.50;3.20;;;24.70;38.50;;;;;;6194592;28;20264;-61
2022/05/18 15:00:48;;;;;;;4.20;3.27;;;24.80;38.60;;;;;;6204328;28;20252;-63
2022/05/18 15:03:54;;;;;;;3.30;3.00;;;24.50;38.40;;;;;;6204695;28;20285;-61
2022/05/18 15:07:01;;;;;;;3.37;3.07;;;24.40;38.70;;;;;;6204307;28;20236;-61
2022/05/18 15:10:17;;;;;;;3.50;3.20;;;24.40;38.90;;;;;;6204171;28;20245;-62
2022/05/18 15:13:24;;;;;;;3.70;2.83;;;24.20;38.20;;;;;;6204009;28;20659;-62
2022/05/18 15:16:34;;;;;;;3.40;2.87;;;24.10;38.10;;;;;;6203898;28;20252;-61
2022/05/18 15:19:45;;;;;;;3.03;2.80;;;24.20;38.40;;;;;;6202799;28;20225;-60
2022/05/18 15:22:53;;;;;;;4.27;3.07;;;24.10;38.50;;;;;;6203616;28;20230;-60
2022/05/18 15:25:58;;;;;;;3.23;3.00;;;24.30;38.50;;;;;;6203830;28;20229;-63
2022/05/18 15:29:11;;;;;;;4.10;2.80;;;24.50;38.00;;;;;;6203291;28;20292;-62
2022/05/18 15:32:17;;;;;;;3.97;3.17;;;24.60;37.70;;;;;;6203837;28;20300;-61
2022/05/18 15:35:28;;;;;;;3.00;2.80;;;24.60;38.00;;;;;;6203350;28;20257;-60
2022/05/18 15:38:32;;;;;;;3.90;2.57;;;24.60;38.50;;;;;;6203084;28;20238;-60
2022/05/18 15:41:35;;;;;;;6.03;3.13;;;24.40;38.00;;;;;;6203012;28;20233;-60
2022/05/18 15:44:38;;;;;;;6.63;2.97;;;24.40;38.00;;;;;;6203570;28;20233;-60
2022/05/18 15:47:50;;;;;;;3.07;2.77;;;24.40;37.80;;;;;;6202376;28;20317;-59
2022/05/18 15:50:55;;;;;;;7.17;4.20;;;24.30;38.00;;;;;;6203146;28;20541;-61
2022/05/18 15:54:01;;;;;;;3.30;3.00;;;24.20;37.80;;;;;;6203016;28;20660;-61
2022/05/18 15:57:05;;;;;;;5.83;3.10;;;24.20;38.10;;;;;;6202876;28;20230;-61
2022/05/18 16:00:11;;;;;;;5.90;3.50;;;24.10;37.90;;;;;;6197927;28;20288;-61
2022/05/18 16:03:14;;;;;;;5.40;2.70;;;24.10;38.40;;;;;;6202863;28;20226;-61
2022/05/18 16:06:23;;;;;;;3.27;2.93;;;24.10;38.30;;;;;;6201869;28;20233;-62
2022/05/18 16:09:26;;;;;;;3.83;3.20;;;24.20;38.20;;;;;;6202703;28;20685;-62
2022/05/18 16:12:32;;;;;;;4.30;3.10;;;24.10;37.80;;;;;;6202463;28;20336;-61
2022/05/18 16:15:36;;;;;;;4.20;3.43;;;24.30;37.90;;;;;;6202062;28;20587;-61
2022/05/18 16:18:39;;;;;;;5.20;2.97;;;24.20;37.70;;;;;;6204687;28;20280;-61
2022/05/18 16:21:44;;;;;;;3.87;2.60;;;24.00;38.80;;;;;;6202239;28;20233;-61
2022/05/18 16:24:47;;;;;;;3.30;2.73;;;23.90;38.30;;;;;;6202547;28;20650;-66
2022/05/18 16:27:51;;;;;;;3.20;2.60;;;24.00;38.20;;;;;;6201990;28;20714;-61
2022/05/18 16:30:56;;;;;;;4.50;2.30;;;24.10;38.40;;;;;;6202423;28;20226;-62
2022/05/18 16:34:05;;;;;;;3.20;2.90;;;24.00;38.30;;;;;;6202517;28;20234;-61